リガ の空港の天気 - METARとTAF

リガ国際空港 ( EVRA / RIX ) - ラトビア リガ
飛行場実況気象(Metar)
観測時間05/27 02:20 EEST (05/26 23:20 UTC)
風向・風速南西 3m/s
視程10km以上
天気現象弱いしゅう雨
少しの雲 雲底高度 430m
全天の8割程度の雲 雲底高度 1040m
全天を覆う雲 雲底高度 1490m
気温10℃
湿度87%
気圧1002hPa
METAREVRA 262320Z 23006KT 200V270 9999 -SHRA FEW014CB BKN034 OVC049 10/08 Q1002 NOSIG
過去の天気等 Google飛行場航空写真 Wunderground天気予報

過去48時間のMETAR

飛行場予報(TAF)
発表時間: 5/27 02:00 EEST (5/26 23:00 UTC)
予報対象時間: 27日3時 EEST ~ 28日3時 EEST
風向・風速南西 5m/s
視程10km以上
全天の8割程度の雲 雲底高度 910m
27日3時 EEST ~ 27日6時 EEST に一時的に
全天の8割程度の雲 雲底高度 300m
全天の8割程度の積乱雲 雲底高度 610m
27日9時 EEST ~ 27日15時 EEST に一時的に
風向・風速西南西 8m/s 瞬間風速 13m/s
TAF EVRA 262300Z 2700/2724 23009KT 9999 BKN030
TEMPO 2700/2703 BKN010 BKN020CB
TEMPO 2706/2712 24015G26KT